sensor_id;sensor_type;location;lat;lon;timestamp;pressure;altitude;pressure_sealevel;temperature
60615;BMP280;46444;45.590;5.284;2022-08-03T00:00:55;98639.50;;;25.51
60615;BMP280;46444;45.590;5.284;2022-08-03T00:03:20;98638.88;;;25.46
60615;BMP280;46444;45.590;5.284;2022-08-03T00:05:46;98642.44;;;25.46
60615;BMP280;46444;45.590;5.284;2022-08-03T00:08:11;98644.06;;;25.59
60615;BMP280;46444;45.590;5.284;2022-08-03T00:10:37;98638.56;;;25.47
60615;BMP280;46444;45.590;5.284;2022-08-03T00:13:03;98641.50;;;25.42
60615;BMP280;46444;45.590;5.284;2022-08-03T00:15:28;98641.16;;;25.44
60615;BMP280;46444;45.590;5.284;2022-08-03T00:17:54;98648.06;;;25.29
60615;BMP280;46444;45.590;5.284;2022-08-03T00:20:22;98654.53;;;25.25
60615;BMP280;46444;45.590;5.284;2022-08-03T00:22:48;98649.69;;;25.22
60615;BMP280;46444;45.590;5.284;2022-08-03T00:25:14;98649.19;;;25.28
60615;BMP280;46444;45.590;5.284;2022-08-03T00:27:39;98645.25;;;25.38
60615;BMP280;46444;45.590;5.284;2022-08-03T00:30:05;98646.84;;;25.18
60615;BMP280;46444;45.590;5.284;2022-08-03T00:32:31;98647.59;;;25.27
60615;BMP280;46444;45.590;5.284;2022-08-03T00:34:56;98650.50;;;25.22
60615;BMP280;46444;45.590;5.284;2022-08-03T00:37:21;98644.88;;;25.27
60615;BMP280;46444;45.590;5.284;2022-08-03T00:39:47;98647.97;;;25.17
60615;BMP280;46444;45.590;5.284;2022-08-03T00:42:12;98640.66;;;25.09
60615;BMP280;46444;45.590;5.284;2022-08-03T00:44:39;98640.97;;;25.08
60615;BMP280;46444;45.590;5.284;2022-08-03T00:47:05;98644.53;;;25.08
60615;BMP280;46444;45.590;5.284;2022-08-03T00:49:30;98645.31;;;25.09
60615;BMP280;46444;45.590;5.284;2022-08-03T00:51:56;98641.16;;;25.03
60615;BMP280;46444;45.590;5.284;2022-08-03T00:54:22;98635.56;;;24.99
60615;BMP280;46444;45.590;5.284;2022-08-03T00:56:49;98639.59;;;25.02
60615;BMP280;46444;45.590;5.284;2022-08-03T00:59:15;98633.84;;;24.95
60615;BMP280;46444;45.590;5.284;2022-08-03T01:01:40;98633.84;;;24.95
60615;BMP280;46444;45.590;5.284;2022-08-03T01:04:06;98643.31;;;24.97
60615;BMP280;46444;45.590;5.284;2022-08-03T01:06:38;98644.59;;;25.00
60615;BMP280;46444;45.590;5.284;2022-08-03T01:09:37;98642.63;;;25.00
60615;BMP280;46444;45.590;5.284;2022-08-03T01:12:13;98650.00;;;24.88
60615;BMP280;46444;45.590;5.284;2022-08-03T01:15:04;98650.06;;;24.79
60615;BMP280;46444;45.590;5.284;2022-08-03T01:17:33;98640.63;;;24.68
60615;BMP280;46444;45.590;5.284;2022-08-03T01:20:20;98640.38;;;24.61
60615;BMP280;46444;45.590;5.284;2022-08-03T01:31:10;98642.38;;;24.73
60615;BMP280;46444;45.590;5.284;2022-08-03T01:33:54;98643.19;;;24.73
60615;BMP280;46444;45.590;5.284;2022-08-03T01:36:23;98640.44;;;24.73
60615;BMP280;46444;45.590;5.284;2022-08-03T01:38:54;98635.31;;;24.72
60615;BMP280;46444;45.590;5.284;2022-08-03T01:41:29;98639.72;;;24.56
60615;BMP280;46444;45.590;5.284;2022-08-03T01:43:56;98641.78;;;24.67
60615;BMP280;46444;45.590;5.284;2022-08-03T01:46:22;98642.16;;;24.57
60615;BMP280;46444;45.590;5.284;2022-08-03T01:48:50;98640.38;;;24.61
60615;BMP280;46444;45.590;5.284;2022-08-03T01:51:17;98638.44;;;24.53
60615;BMP280;46444;45.590;5.284;2022-08-03T01:53:43;98637.16;;;24.51
60615;BMP280;46444;45.590;5.284;2022-08-03T01:56:10;98635.25;;;24.51
60615;BMP280;46444;45.590;5.284;2022-08-03T01:58:37;98636.84;;;24.52
60615;BMP280;46444;45.590;5.284;2022-08-03T02:01:04;98639.09;;;24.50
60615;BMP280;46444;45.590;5.284;2022-08-03T02:03:33;98647.50;;;24.45
60615;BMP280;46444;45.590;5.284;2022-08-03T02:06:01;98644.00;;;24.36
60615;BMP280;46444;45.590;5.284;2022-08-03T02:08:27;98632.06;;;24.49
60615;BMP280;46444;45.590;5.284;2022-08-03T02:10:56;98624.03;;;24.44
60615;BMP280;46444;45.590;5.284;2022-08-03T02:13:23;98630.00;;;24.38
60615;BMP280;46444;45.590;5.284;2022-08-03T02:15:49;98634.47;;;24.42
60615;BMP280;46444;45.590;5.284;2022-08-03T02:18:17;98636.66;;;24.28
60615;BMP280;46444;45.590;5.284;2022-08-03T02:53:00;98631.88;;;24.25
60615;BMP280;46444;45.590;5.284;2022-08-03T03:19:13;98631.03;;;23.79
60615;BMP280;46444;45.590;5.284;2022-08-03T03:24:45;98627.66;;;23.82
60615;BMP280;46444;45.590;5.284;2022-08-03T03:45:55;98630.13;;;23.66
60615;BMP280;46444;45.590;5.284;2022-08-03T03:48:30;98630.75;;;23.63
60615;BMP280;46444;45.590;5.284;2022-08-03T04:16:52;98648.63;;;23.35
60615;BMP280;46444;45.590;5.284;2022-08-03T04:19:45;98656.47;;;23.45
60615;BMP280;46444;45.590;5.284;2022-08-03T04:25:02;98657.44;;;23.41
60615;BMP280;46444;45.590;5.284;2022-08-03T04:27:36;98657.13;;;23.42
60615;BMP280;46444;45.590;5.284;2022-08-03T04:45:57;98668.69;;;23.31
60615;BMP280;46444;45.590;5.284;2022-08-03T04:48:23;98659.38;;;23.23
60615;BMP280;46444;45.590;5.284;2022-08-03T04:50:48;98683.28;;;23.26
60615;BMP280;46444;45.590;5.284;2022-08-03T04:53:15;98675.41;;;23.33
60615;BMP280;46444;45.590;5.284;2022-08-03T04:55:40;98683.44;;;23.21
60615;BMP280;46444;45.590;5.284;2022-08-03T04:58:06;98683.44;;;23.21
60615;BMP280;46444;45.590;5.284;2022-08-03T05:00:31;98690.81;;;23.12
60615;BMP280;46444;45.590;5.284;2022-08-03T05:02:57;98693.03;;;23.10
60615;BMP280;46444;45.590;5.284;2022-08-03T05:05:22;98697.72;;;23.18
60615;BMP280;46444;45.590;5.284;2022-08-03T05:07:48;98695.91;;;23.05
60615;BMP280;46444;45.590;5.284;2022-08-03T05:10:14;98700.06;;;23.11
60615;BMP280;46444;45.590;5.284;2022-08-03T05:12:40;98700.72;;;23.08
60615;BMP280;46444;45.590;5.284;2022-08-03T05:15:06;98708.91;;;23.08
60615;BMP280;46444;45.590;5.284;2022-08-03T05:17:32;98710.03;;;23.07
60615;BMP280;46444;45.590;5.284;2022-08-03T05:20:01;98716.28;;;23.08
60615;BMP280;46444;45.590;5.284;2022-08-03T05:22:28;98708.94;;;23.17
60615;BMP280;46444;45.590;5.284;2022-08-03T05:24:53;98711.38;;;23.27
60615;BMP280;46444;45.590;5.284;2022-08-03T05:27:19;98716.81;;;23.18
60615;BMP280;46444;45.590;5.284;2022-08-03T05:29:49;98722.56;;;23.17
60615;BMP280;46444;45.590;5.284;2022-08-03T05:32:15;98715.19;;;23.34
60615;BMP280;46444;45.590;5.284;2022-08-03T05:34:41;98716.78;;;23.35
60615;BMP280;46444;45.590;5.284;2022-08-03T05:37:06;98714.88;;;23.44
60615;BMP280;46444;45.590;5.284;2022-08-03T05:39:32;98716.63;;;23.40
60615;BMP280;46444;45.590;5.284;2022-08-03T05:41:58;98721.78;;;23.50
60615;BMP280;46444;45.590;5.284;2022-08-03T05:44:23;98711.19;;;23.57
60615;BMP280;46444;45.590;5.284;2022-08-03T05:46:50;98719.88;;;23.51
60615;BMP280;46444;45.590;5.284;2022-08-03T05:49:15;98718.38;;;23.53
60615;BMP280;46444;45.590;5.284;2022-08-03T05:51:40;98719.66;;;23.64
60615;BMP280;46444;45.590;5.284;2022-08-03T05:54:06;98722.91;;;23.66
60615;BMP280;46444;45.590;5.284;2022-08-03T05:56:32;98719.66;;;23.64
60615;BMP280;46444;45.590;5.284;2022-08-03T05:58:58;98722.91;;;23.66
60615;BMP280;46444;45.590;5.284;2022-08-03T06:01:23;98731.84;;;23.75
60615;BMP280;46444;45.590;5.284;2022-08-03T06:03:49;98727.38;;;23.79
60615;BMP280;46444;45.590;5.284;2022-08-03T06:06:15;98723.97;;;23.82
60615;BMP280;46444;45.590;5.284;2022-08-03T06:08:41;98732.53;;;23.89
60615;BMP280;46444;45.590;5.284;2022-08-03T06:11:07;98727.38;;;23.96
60615;BMP280;46444;45.590;5.284;2022-08-03T06:13:32;98725.09;;;23.98
60615;BMP280;46444;45.590;5.284;2022-08-03T06:15:58;98725.09;;;24.07
60615;BMP280;46444;45.590;5.284;2022-08-03T06:18:23;98730.84;;;24.05
60615;BMP280;46444;45.590;5.284;2022-08-03T06:20:49;98731.00;;;24.09
60615;BMP280;46444;45.590;5.284;2022-08-03T06:23:15;98729.06;;;24.18
60615;BMP280;46444;45.590;5.284;2022-08-03T06:25:41;98728.25;;;24.17
60615;BMP280;46444;45.590;5.284;2022-08-03T06:28:07;98730.50;;;24.24
60615;BMP280;46444;45.590;5.284;2022-08-03T06:30:32;98732.69;;;24.30
60615;BMP280;46444;45.590;5.284;2022-08-03T06:32:58;98725.94;;;24.36
60615;BMP280;46444;45.590;5.284;2022-08-03T06:35:23;98734.63;;;24.38
60615;BMP280;46444;45.590;5.284;2022-08-03T06:37:49;98736.81;;;24.45
60615;BMP280;46444;45.590;5.284;2022-08-03T06:40:17;98733.59;;;24.51
60615;BMP280;46444;45.590;5.284;2022-08-03T06:42:43;98730.56;;;24.44
60615;BMP280;46444;45.590;5.284;2022-08-03T06:45:09;98733.13;;;24.58
60615;BMP280;46444;45.590;5.284;2022-08-03T06:47:38;98735.78;;;24.66
60615;BMP280;46444;45.590;5.284;2022-08-03T06:50:07;98729.50;;;24.74
60615;BMP280;46444;45.590;5.284;2022-08-03T06:52:34;98736.38;;;24.80
60615;BMP280;46444;45.590;5.284;2022-08-03T06:54:59;98733.09;;;24.87
60615;BMP280;46444;45.590;5.284;2022-08-03T06:57:24;98740.34;;;24.91
60615;BMP280;46444;45.590;5.284;2022-08-03T06:59:50;98742.88;;;24.96
60615;BMP280;46444;45.590;5.284;2022-08-03T07:02:15;98742.03;;;25.04
60615;BMP280;46444;45.590;5.284;2022-08-03T07:04:42;98739.41;;;25.08
60615;BMP280;46444;45.590;5.284;2022-08-03T07:07:08;98742.41;;;25.15
60615;BMP280;46444;45.590;5.284;2022-08-03T07:09:33;98738.22;;;25.17
60615;BMP280;46444;45.590;5.284;2022-08-03T07:11:58;98746.72;;;25.24
60615;BMP280;46444;45.590;5.284;2022-08-03T07:14:26;98745.38;;;25.30
60615;BMP280;46444;45.590;5.284;2022-08-03T07:16:51;98743.28;;;25.36
60615;BMP280;46444;45.590;5.284;2022-08-03T07:19:17;98745.00;;;25.40
60615;BMP280;46444;45.590;5.284;2022-08-03T07:21:42;98742.41;;;25.44
60615;BMP280;46444;45.590;5.284;2022-08-03T07:24:07;98749.28;;;25.50
60615;BMP280;46444;45.590;5.284;2022-08-03T07:26:33;98749.84;;;25.55
60615;BMP280;46444;45.590;5.284;2022-08-03T07:28:58;98746.47;;;25.58
60615;BMP280;46444;45.590;5.284;2022-08-03T07:31:25;98748.19;;;25.63
60615;BMP280;46444;45.590;5.284;2022-08-03T07:33:51;98745.56;;;25.66
60615;BMP280;46444;45.590;5.284;2022-08-03T07:36:16;98750.06;;;25.71
60615;BMP280;46444;45.590;5.284;2022-08-03T07:38:42;98750.19;;;25.74
60615;BMP280;46444;45.590;5.284;2022-08-03T07:41:07;98740.16;;;25.78
60615;BMP280;46444;45.590;5.284;2022-08-03T07:43:32;98741.41;;;25.81
60615;BMP280;46444;45.590;5.284;2022-08-03T07:45:58;98732.53;;;25.84
60615;BMP280;46444;45.590;5.284;2022-08-03T07:48:23;98744.41;;;25.88
60615;BMP280;46444;45.590;5.284;2022-08-03T07:50:48;98733.59;;;25.91
60615;BMP280;46444;45.590;5.284;2022-08-03T07:53:14;98715.72;;;25.94
60615;BMP280;46444;45.590;5.284;2022-08-03T07:55:40;98733.06;;;25.98
60615;BMP280;46444;45.590;5.284;2022-08-03T07:58:10;98738.66;;;26.01
60615;BMP280;46444;45.590;5.284;2022-08-03T08:00:40;98734.13;;;26.05
60615;BMP280;46444;45.590;5.284;2022-08-03T08:03:05;98727.94;;;26.08
60615;BMP280;46444;45.590;5.284;2022-08-03T08:05:31;98728.44;;;26.10
60615;BMP280;46444;45.590;5.284;2022-08-03T08:07:56;98731.41;;;26.17
60615;BMP280;46444;45.590;5.284;2022-08-03T08:10:22;98728.47;;;26.22
60615;BMP280;46444;45.590;5.284;2022-08-03T08:12:48;98732.56;;;26.28
60615;BMP280;46444;45.590;5.284;2022-08-03T08:15:16;98723.31;;;26.33
60615;BMP280;46444;45.590;5.284;2022-08-03T08:20:08;98729.03;;;26.40
60615;BMP280;46444;45.590;5.284;2022-08-03T08:22:34;98734.75;;;26.47
60615;BMP280;46444;45.590;5.284;2022-08-03T08:24:59;98730.53;;;26.49
60615;BMP280;46444;45.590;5.284;2022-08-03T08:27:25;98735.81;;;26.54
60615;BMP280;46444;45.590;5.284;2022-08-03T08:29:50;98731.59;;;26.57
60615;BMP280;46444;45.590;5.284;2022-08-03T08:32:16;98727.81;;;26.61
60615;BMP280;46444;45.590;5.284;2022-08-03T08:34:41;98725.56;;;26.63
60615;BMP280;46444;45.590;5.284;2022-08-03T08:37:06;98730.78;;;26.68
60615;BMP280;46444;45.590;5.284;2022-08-03T08:39:32;98728.97;;;26.72
60615;BMP280;46444;45.590;5.284;2022-08-03T08:41:57;98724.84;;;26.78
60615;BMP280;46444;45.590;5.284;2022-08-03T08:44:22;98729.31;;;26.83
60615;BMP280;46444;45.590;5.284;2022-08-03T08:46:48;98726.66;;;26.86
60615;BMP280;46444;45.590;5.284;2022-08-03T08:49:16;98720.28;;;27.06
60615;BMP280;46444;45.590;5.284;2022-08-03T08:51:45;98722.78;;;27.11
60615;BMP280;46444;45.590;5.284;2022-08-03T08:54:12;98718.31;;;27.07
60615;BMP280;46444;45.590;5.284;2022-08-03T08:56:39;98712.91;;;27.10
60615;BMP280;46444;45.590;5.284;2022-08-03T08:59:05;98713.53;;;27.16
60615;BMP280;46444;45.590;5.284;2022-08-03T09:01:30;98713.53;;;27.16
60615;BMP280;46444;45.590;5.284;2022-08-03T09:03:55;98715.22;;;27.20
60615;BMP280;46444;45.590;5.284;2022-08-03T09:06:22;98712.94;;;27.22
60615;BMP280;46444;45.590;5.284;2022-08-03T09:08:47;98707.44;;;27.22
60615;BMP280;46444;45.590;5.284;2022-08-03T09:11:13;98705.16;;;27.24
60615;BMP280;46444;45.590;5.284;2022-08-03T09:13:38;98704.47;;;27.27
60615;BMP280;46444;45.590;5.284;2022-08-03T09:16:20;98707.78;;;27.33
60615;BMP280;46444;45.590;5.284;2022-08-03T09:18:50;98713.13;;;27.41
60615;BMP280;46444;45.590;5.284;2022-08-03T09:21:27;98708.75;;;27.52
60615;BMP280;46444;45.590;5.284;2022-08-03T09:23:57;98704.47;;;27.55
60615;BMP280;46444;45.590;5.284;2022-08-03T09:26:28;98709.63;;;27.56
60615;BMP280;46444;45.590;5.284;2022-08-03T09:28:59;98705.47;;;27.62
60615;BMP280;46444;45.590;5.284;2022-08-03T09:33:56;98702.50;;;27.67
60615;BMP280;46444;45.590;5.284;2022-08-03T09:39:09;98701.31;;;27.80
60615;BMP280;46444;45.590;5.284;2022-08-03T09:41:40;98708.50;;;27.85
60615;BMP280;46444;45.590;5.284;2022-08-03T09:44:06;98696.72;;;27.84
60615;BMP280;46444;45.590;5.284;2022-08-03T09:46:47;98696.91;;;27.91
60615;BMP280;46444;45.590;5.284;2022-08-03T09:49:12;98697.00;;;27.95
60615;BMP280;46444;45.590;5.284;2022-08-03T09:51:38;98694.09;;;28.03
60615;BMP280;46444;45.590;5.284;2022-08-03T09:54:05;98690.56;;;28.18
60615;BMP280;46444;45.590;5.284;2022-08-03T09:56:42;98692.84;;;28.16
60615;BMP280;46444;45.590;5.284;2022-08-03T09:59:08;98688.94;;;28.17
60615;BMP280;46444;45.590;5.284;2022-08-03T10:01:35;98688.25;;;28.20
60615;BMP280;46444;45.590;5.284;2022-08-03T10:04:01;98686.41;;;28.24
60615;BMP280;46444;45.590;5.284;2022-08-03T10:06:27;98681.44;;;28.30
60615;BMP280;46444;45.590;5.284;2022-08-03T10:09:07;98678.06;;;28.36
60615;BMP280;46444;45.590;5.284;2022-08-03T10:11:33;98677.13;;;28.44
60615;BMP280;46444;45.590;5.284;2022-08-03T10:14:02;98669.84;;;28.52
60615;BMP280;46444;45.590;5.284;2022-08-03T10:16:32;98677.59;;;28.65
60615;BMP280;46444;45.590;5.284;2022-08-03T10:18:58;98674.66;;;28.74
60615;BMP280;46444;45.590;5.284;2022-08-03T10:21:32;98671.66;;;28.79
60615;BMP280;46444;45.590;5.284;2022-08-03T10:24:01;98667.63;;;29.07
60615;BMP280;46444;45.590;5.284;2022-08-03T10:26:30;98663.72;;;28.93
60615;BMP280;46444;45.590;5.284;2022-08-03T10:28:58;98671.84;;;29.20
60615;BMP280;46444;45.590;5.284;2022-08-03T10:31:32;98661.66;;;29.24
60615;BMP280;46444;45.590;5.284;2022-08-03T10:33:59;98663.72;;;29.46
60615;BMP280;46444;45.590;5.284;2022-08-03T10:36:29;98658.56;;;29.26
60615;BMP280;46444;45.590;5.284;2022-08-03T10:38:56;98659.31;;;29.42
60615;BMP280;46444;45.590;5.284;2022-08-03T10:41:27;98648.50;;;29.52
60615;BMP280;46444;45.590;5.284;2022-08-03T10:44:02;98653.97;;;29.90
60615;BMP280;46444;45.590;5.284;2022-08-03T10:46:28;98654.66;;;30.06
60615;BMP280;46444;45.590;5.284;2022-08-03T10:48:56;98646.75;;;30.05
60615;BMP280;46444;45.590;5.284;2022-08-03T10:51:22;98643.56;;;30.03
60615;BMP280;46444;45.590;5.284;2022-08-03T10:53:48;98637.06;;;29.92
60615;BMP280;46444;45.590;5.284;2022-08-03T10:59:17;98635.81;;;30.08
60615;BMP280;46444;45.590;5.284;2022-08-03T11:01:54;98633.41;;;30.29
60615;BMP280;46444;45.590;5.284;2022-08-03T11:04:21;98625.69;;;30.16
60615;BMP280;46444;45.590;5.284;2022-08-03T11:07:18;98633.00;;;30.27
60615;BMP280;46444;45.590;5.284;2022-08-03T11:09:50;98627.75;;;30.19
60615;BMP280;46444;45.590;5.284;2022-08-03T11:12:28;98621.41;;;30.18
60615;BMP280;46444;45.590;5.284;2022-08-03T11:14:55;98626.72;;;30.30
60615;BMP280;46444;45.590;5.284;2022-08-03T11:17:21;98625.91;;;30.26
60615;BMP280;46444;45.590;5.284;2022-08-03T11:19:49;98605.53;;;30.34
60615;BMP280;46444;45.590;5.284;2022-08-03T11:22:15;98600.81;;;30.35
60615;BMP280;46444;45.590;5.284;2022-08-03T11:35:18;98592.19;;;30.62
60615;BMP280;46444;45.590;5.284;2022-08-03T11:38:05;98583.06;;;30.58
60615;BMP280;46444;45.590;5.284;2022-08-03T11:40:47;98582.28;;;30.61
60615;BMP280;46444;45.590;5.284;2022-08-03T11:46:09;98574.75;;;30.84
60615;BMP280;46444;45.590;5.284;2022-08-03T11:48:43;98569.03;;;31.00
60615;BMP280;46444;45.590;5.284;2022-08-03T11:51:19;98576.66;;;31.10
60615;BMP280;46444;45.590;5.284;2022-08-03T11:53:45;98570.56;;;31.23
60615;BMP280;46444;45.590;5.284;2022-08-03T11:56:13;98572.88;;;31.21
60615;BMP280;46444;45.590;5.284;2022-08-03T11:58:46;98568.84;;;31.48
60615;BMP280;46444;45.590;5.284;2022-08-03T12:01:12;98559.25;;;31.35
60615;BMP280;46444;45.590;5.284;2022-08-03T12:03:41;98568.78;;;31.41
60615;BMP280;46444;45.590;5.284;2022-08-03T12:06:11;98560.16;;;31.46
60615;BMP280;46444;45.590;5.284;2022-08-03T12:08:38;98558.31;;;31.57
60615;BMP280;46444;45.590;5.284;2022-08-03T12:11:05;98561.13;;;31.64
60615;BMP280;46444;45.590;5.284;2022-08-03T12:13:46;98546.56;;;31.71
60615;BMP280;46444;45.590;5.284;2022-08-03T12:16:23;98549.44;;;31.78
60615;BMP280;46444;45.590;5.284;2022-08-03T12:19:00;98545.22;;;31.91
60615;BMP280;46444;45.590;5.284;2022-08-03T12:21:45;98546.06;;;31.98
60615;BMP280;46444;45.590;5.284;2022-08-03T12:24:11;98538.63;;;32.09
60615;BMP280;46444;45.590;5.284;2022-08-03T12:26:48;98551.53;;;32.38
60615;BMP280;46444;45.590;5.284;2022-08-03T12:29:19;98549.91;;;32.30
60615;BMP280;46444;45.590;5.284;2022-08-03T12:31:45;98549.59;;;32.46
60615;BMP280;46444;45.590;5.284;2022-08-03T12:34:11;98543.75;;;32.58
60615;BMP280;46444;45.590;5.284;2022-08-03T12:36:52;98540.13;;;32.50
60615;BMP280;46444;45.590;5.284;2022-08-03T12:39:21;98536.59;;;32.50
60615;BMP280;46444;45.590;5.284;2022-08-03T12:41:52;98523.16;;;32.55
60615;BMP280;46444;45.590;5.284;2022-08-03T12:44:30;98521.97;;;32.49
60615;BMP280;46444;45.590;5.284;2022-08-03T12:46:57;98524.34;;;32.54
60615;BMP280;46444;45.590;5.284;2022-08-03T12:49:24;98518.19;;;32.78
60615;BMP280;46444;45.590;5.284;2022-08-03T12:54:16;98520.66;;;33.15
60615;BMP280;46444;45.590;5.284;2022-08-03T12:57:08;98523.78;;;33.03
60615;BMP280;46444;45.590;5.284;2022-08-03T12:59:39;98515.53;;;33.06
60615;BMP280;46444;45.590;5.284;2022-08-03T13:02:14;98514.84;;;33.44
60615;BMP280;46444;45.590;5.284;2022-08-03T13:04:40;98519.63;;;33.58
60615;BMP280;46444;45.590;5.284;2022-08-03T13:07:08;98517.63;;;33.44
60615;BMP280;46444;45.590;5.284;2022-08-03T13:12:24;98505.34;;;33.59
60615;BMP280;46444;45.590;5.284;2022-08-03T13:14:51;98505.78;;;33.61
60615;BMP280;46444;45.590;5.284;2022-08-03T13:17:17;98506.97;;;33.57
60615;BMP280;46444;45.590;5.284;2022-08-03T13:19:43;98501.81;;;33.69
60615;BMP280;46444;45.590;5.284;2022-08-03T13:22:20;98497.44;;;33.72
60615;BMP280;46444;45.590;5.284;2022-08-03T13:24:47;98486.38;;;33.68
60615;BMP280;46444;45.590;5.284;2022-08-03T13:27:14;98488.34;;;33.68
60615;BMP280;46444;45.590;5.284;2022-08-03T13:29:39;98488.34;;;33.71
60615;BMP280;46444;45.590;5.284;2022-08-03T13:32:07;98478.06;;;33.79
60615;BMP280;46444;45.590;5.284;2022-08-03T13:34:32;98478.84;;;34.04
60615;BMP280;46444;45.590;5.284;2022-08-03T13:36:58;98474.91;;;34.05
60615;BMP280;46444;45.590;5.284;2022-08-03T13:39:23;98476.47;;;34.06
60615;BMP280;46444;45.590;5.284;2022-08-03T13:41:49;98475.69;;;34.05
60615;BMP280;46444;45.590;5.284;2022-08-03T13:44:14;98470.13;;;34.12
60615;BMP280;46444;45.590;5.284;2022-08-03T13:46:40;98470.88;;;34.34
60615;BMP280;46444;45.590;5.284;2022-08-03T13:49:06;98474.81;;;34.40
60615;BMP280;46444;45.590;5.284;2022-08-03T13:51:32;98474.06;;;34.39
60615;BMP280;46444;45.590;5.284;2022-08-03T13:53:58;98460.59;;;34.31
60615;BMP280;46444;45.590;5.284;2022-08-03T13:56:25;98462.97;;;34.32
60615;BMP280;46444;45.590;5.284;2022-08-03T13:58:50;98459.78;;;34.41
60615;BMP280;46444;45.590;5.284;2022-08-03T14:01:16;98459.75;;;34.51
60615;BMP280;46444;45.590;5.284;2022-08-03T14:03:41;98444.59;;;34.66
60615;BMP280;46444;45.590;5.284;2022-08-03T14:06:06;98436.72;;;34.61
60615;BMP280;46444;45.590;5.284;2022-08-03T14:08:32;98450.94;;;34.70
60615;BMP280;46444;45.590;5.284;2022-08-03T14:10:57;98441.41;;;34.78
60615;BMP280;46444;45.590;5.284;2022-08-03T14:13:23;98438.97;;;34.91
60615;BMP280;46444;45.590;5.284;2022-08-03T14:15:49;98443.75;;;34.83
60615;BMP280;46444;45.590;5.284;2022-08-03T14:18:17;98434.94;;;34.98
60615;BMP280;46444;45.590;5.284;2022-08-03T14:20:43;98433.75;;;35.03
60615;BMP280;46444;45.590;5.284;2022-08-03T14:23:09;98431.00;;;35.00
60615;BMP280;46444;45.590;5.284;2022-08-03T14:25:34;98423.00;;;35.05
60615;BMP280;46444;45.590;5.284;2022-08-03T14:28:00;98419.81;;;35.10
60615;BMP280;46444;45.590;5.284;2022-08-03T14:30:26;98424.81;;;35.36
60615;BMP280;46444;45.590;5.284;2022-08-03T14:32:51;98418.84;;;35.38
60615;BMP280;46444;45.590;5.284;2022-08-03T14:35:16;98416.53;;;35.29
60615;BMP280;46444;45.590;5.284;2022-08-03T14:37:42;98412.44;;;35.44
60615;BMP280;46444;45.590;5.284;2022-08-03T14:40:07;98414.03;;;35.45
60615;BMP280;46444;45.590;5.284;2022-08-03T14:42:33;98398.44;;;35.54
60615;BMP280;46444;45.590;5.284;2022-08-03T14:44:58;98401.19;;;35.58
60615;BMP280;46444;45.590;5.284;2022-08-03T14:47:24;98404.72;;;35.65
60615;BMP280;46444;45.590;5.284;2022-08-03T14:49:49;98397.88;;;35.77
60615;BMP280;46444;45.590;5.284;2022-08-03T14:52:14;98400.22;;;35.82
60615;BMP280;46444;45.590;5.284;2022-08-03T14:54:40;98400.16;;;35.85
60615;BMP280;46444;45.590;5.284;2022-08-03T14:57:05;98398.47;;;35.95
60615;BMP280;46444;45.590;5.284;2022-08-03T14:59:31;98386.53;;;35.98
60615;BMP280;46444;45.590;5.284;2022-08-03T15:01:56;98396.06;;;35.97
60615;BMP280;46444;45.590;5.284;2022-08-03T15:04:22;98384.88;;;36.04
60615;BMP280;46444;45.590;5.284;2022-08-03T15:06:47;98384.00;;;36.10
60615;BMP280;46444;45.590;5.284;2022-08-03T15:09:13;98376.88;;;36.09
60615;BMP280;46444;45.590;5.284;2022-08-03T15:11:38;98382.75;;;36.15
60615;BMP280;46444;45.590;5.284;2022-08-03T15:14:04;98382.75;;;36.15
60615;BMP280;46444;45.590;5.284;2022-08-03T15:16:29;98375.50;;;36.28
60615;BMP280;46444;45.590;5.284;2022-08-03T15:18:54;98372.63;;;36.35
60615;BMP280;46444;45.590;5.284;2022-08-03T15:21:20;98369.38;;;36.40
60615;BMP280;46444;45.590;5.284;2022-08-03T15:23:45;98367.31;;;36.44
60615;BMP280;46444;45.590;5.284;2022-08-03T15:26:10;98370.09;;;36.44
60615;BMP280;46444;45.590;5.284;2022-08-03T15:28:36;98366.44;;;36.50
60615;BMP280;46444;45.590;5.284;2022-08-03T15:31:01;98367.91;;;36.58
60615;BMP280;46444;45.590;5.284;2022-08-03T15:33:27;98362.66;;;36.67
60615;BMP280;46444;45.590;5.284;2022-08-03T15:35:53;98356.72;;;36.65
60615;BMP280;46444;45.590;5.284;2022-08-03T15:38:19;98351.13;;;36.69
60615;BMP280;46444;45.590;5.284;2022-08-03T15:40:47;98348.34;;;36.65
60615;BMP280;46444;45.590;5.284;2022-08-03T15:43:12;98335.19;;;36.69
60615;BMP280;46444;45.590;5.284;2022-08-03T15:45:38;98342.78;;;36.65
60615;BMP280;46444;45.590;5.284;2022-08-03T15:48:05;98346.09;;;36.57
60615;BMP280;46444;45.590;5.284;2022-08-03T15:50:30;98339.66;;;36.60
60615;BMP280;46444;45.590;5.284;2022-08-03T15:52:56;98336.44;;;36.65
60615;BMP280;46444;45.590;5.284;2022-08-03T15:55:21;98339.97;;;36.69
60615;BMP280;46444;45.590;5.284;2022-08-03T15:57:47;98324.47;;;36.68
60615;BMP280;46444;45.590;5.284;2022-08-03T16:00:12;98314.81;;;36.76
60615;BMP280;46444;45.590;5.284;2022-08-03T16:02:38;98317.06;;;36.84
60615;BMP280;46444;45.590;5.284;2022-08-03T16:05:04;98315.75;;;36.92
60615;BMP280;46444;45.590;5.284;2022-08-03T16:07:29;98314.06;;;36.98
60615;BMP280;46444;45.590;5.284;2022-08-03T16:10:16;98310.47;;;36.98
60615;BMP280;46444;45.590;5.284;2022-08-03T16:12:42;98306.44;;;37.02
60615;BMP280;46444;45.590;5.284;2022-08-03T16:15:08;98308.09;;;37.23
60615;BMP280;46444;45.590;5.284;2022-08-03T16:17:34;98310.28;;;37.35
60615;BMP280;46444;45.590;5.284;2022-08-03T16:20:00;98314.72;;;37.32
60615;BMP280;46444;45.590;5.284;2022-08-03T16:22:25;98319.34;;;37.39
60615;BMP280;46444;45.590;5.284;2022-08-03T16:24:52;98311.13;;;37.55
60615;BMP280;46444;45.590;5.284;2022-08-03T16:27:18;98309.03;;;37.82
60615;BMP280;46444;45.590;5.284;2022-08-03T16:29:44;98310.78;;;38.15
60615;BMP280;46444;45.590;5.284;2022-08-03T16:32:09;98310.56;;;38.06
60615;BMP280;46444;45.590;5.284;2022-08-03T16:34:36;98311.03;;;38.40
60615;BMP280;46444;45.590;5.284;2022-08-03T16:37:01;98302.13;;;38.64
60615;BMP280;46444;45.590;5.284;2022-08-03T16:39:27;98291.94;;;38.74
60615;BMP280;46444;45.590;5.284;2022-08-03T16:41:52;98292.78;;;38.71
60615;BMP280;46444;45.590;5.284;2022-08-03T16:44:18;98289.47;;;38.76
60615;BMP280;46444;45.590;5.284;2022-08-03T16:46:43;98292.22;;;38.95
60615;BMP280;46444;45.590;5.284;2022-08-03T16:49:10;98299.50;;;39.25
60615;BMP280;46444;45.590;5.284;2022-08-03T16:51:36;98302.97;;;39.45